sensor_id;sensor_type;location;lat;lon;timestamp;noise_LAeq;noise_LA_min;noise_LA_max;noise_LA01;noise_LA95
41518;Laerm;27249;48.094;-1.690;2023-02-11T00:00:06;47.77;42.53;57.14;;
41518;Laerm;27249;48.094;-1.690;2023-02-11T00:02:31;51.67;43.54;62.99;;
41518;Laerm;27249;48.094;-1.690;2023-02-11T00:04:57;53.10;43.09;64.09;;
41518;Laerm;27249;48.094;-1.690;2023-02-11T00:07:22;52.56;42.98;63.84;;
41518;Laerm;27249;48.094;-1.690;2023-02-11T00:09:47;55.24;45.23;64.16;;
41518;Laerm;27249;48.094;-1.690;2023-02-11T00:12:12;51.12;42.41;61.54;;
41518;Laerm;27249;48.094;-1.690;2023-02-11T00:14:38;54.49;43.86;63.32;;
41518;Laerm;27249;48.094;-1.690;2023-02-11T00:17:03;51.69;42.88;61.36;;
41518;Laerm;27249;48.094;-1.690;2023-02-11T00:19:28;51.74;43.28;60.69;;
41518;Laerm;27249;48.094;-1.690;2023-02-11T00:21:53;50.18;42.71;61.36;;
41518;Laerm;27249;48.094;-1.690;2023-02-11T00:24:18;53.70;43.44;63.71;;
41518;Laerm;27249;48.094;-1.690;2023-02-11T00:26:44;50.64;42.47;63.43;;
41518;Laerm;27249;48.094;-1.690;2023-02-11T00:29:09;50.97;42.93;61.49;;
41518;Laerm;27249;48.094;-1.690;2023-02-11T00:31:34;52.34;42.88;62.65;;
41518;Laerm;27249;48.094;-1.690;2023-02-11T00:34:00;50.88;43.19;59.73;;
41518;Laerm;27249;48.094;-1.690;2023-02-11T00:36:26;47.79;43.39;58.35;;
41518;Laerm;27249;48.094;-1.690;2023-02-11T00:38:52;47.90;43.04;66.25;;
41518;Laerm;27249;48.094;-1.690;2023-02-11T00:41:18;50.03;42.35;61.10;;
41518;Laerm;27249;48.094;-1.690;2023-02-11T00:43:43;47.94;42.98;58.77;;
41518;Laerm;27249;48.094;-1.690;2023-02-11T00:46:09;50.78;42.53;61.29;;
41518;Laerm;27249;48.094;-1.690;2023-02-11T00:48:34;48.34;42.59;60.11;;
41518;Laerm;27249;48.094;-1.690;2023-02-11T00:51:00;49.26;42.69;60.78;;
41518;Laerm;27249;48.094;-1.690;2023-02-11T00:53:26;47.27;42.88;58.52;;
41518;Laerm;27249;48.094;-1.690;2023-02-11T00:55:51;50.06;42.47;60.99;;
41518;Laerm;27249;48.094;-1.690;2023-02-11T00:58:16;49.51;42.59;60.36;;
41518;Laerm;27249;48.094;-1.690;2023-02-11T01:00:41;50.31;42.93;61.26;;
41518;Laerm;27249;48.094;-1.690;2023-02-11T01:03:07;57.92;43.19;72.98;;
41518;Laerm;27249;48.094;-1.690;2023-02-11T01:05:32;54.29;42.71;74.58;;
41518;Laerm;27249;48.094;-1.690;2023-02-11T01:07:57;44.85;42.35;54.54;;
41518;Laerm;27249;48.094;-1.690;2023-02-11T01:10:23;47.24;42.76;57.24;;
41518;Laerm;27249;48.094;-1.690;2023-02-11T01:12:48;47.83;42.88;58.70;;
41518;Laerm;27249;48.094;-1.690;2023-02-11T01:15:14;48.52;42.29;59.57;;
41518;Laerm;27249;48.094;-1.690;2023-02-11T01:17:40;48.57;43.24;62.72;;
41518;Laerm;27249;48.094;-1.690;2023-02-11T01:20:06;51.17;43.44;60.26;;
41518;Laerm;27249;48.094;-1.690;2023-02-11T01:22:31;51.68;42.53;63.82;;
41518;Laerm;27249;48.094;-1.690;2023-02-11T01:24:58;48.00;42.59;58.87;;
41518;Laerm;27249;48.094;-1.690;2023-02-11T01:27:23;59.85;43.04;77.35;;
41518;Laerm;27249;48.094;-1.690;2023-02-11T01:29:49;50.44;42.88;62.64;;
41518;Laerm;27249;48.094;-1.690;2023-02-11T01:32:14;49.71;41.89;61.85;;
41518;Laerm;27249;48.094;-1.690;2023-02-11T01:34:39;50.32;41.96;65.27;;
41518;Laerm;27249;48.094;-1.690;2023-02-11T01:37:04;52.49;41.96;65.54;;
41518;Laerm;27249;48.094;-1.690;2023-02-11T01:39:31;45.47;41.89;55.59;;
41518;Laerm;27249;48.094;-1.690;2023-02-11T01:41:56;49.70;42.22;60.56;;
41518;Laerm;27249;48.094;-1.690;2023-02-11T01:46:47;51.24;42.82;62.12;;
41518;Laerm;27249;48.094;-1.690;2023-02-11T01:49:24;49.55;42.71;62.03;;
41518;Laerm;27249;48.094;-1.690;2023-02-11T01:51:52;50.40;42.53;63.46;;
41518;Laerm;27249;48.094;-1.690;2023-02-11T01:54:20;50.95;42.76;62.08;;
41518;Laerm;27249;48.094;-1.690;2023-02-11T01:57:04;52.12;42.98;62.23;;
41518;Laerm;27249;48.094;-1.690;2023-02-11T02:02:38;48.56;42.16;59.73;;
41518;Laerm;27249;48.094;-1.690;2023-02-11T02:05:08;48.93;42.09;60.34;;
41518;Laerm;27249;48.094;-1.690;2023-02-11T02:07:40;51.88;42.93;65.13;;
41518;Laerm;27249;48.094;-1.690;2023-02-11T02:10:08;52.51;42.53;63.64;;
41518;Laerm;27249;48.094;-1.690;2023-02-11T02:12:35;51.96;42.29;64.54;;
41518;Laerm;27249;48.094;-1.690;2023-02-11T02:16:02;49.69;42.29;61.44;;
41518;Laerm;27249;48.094;-1.690;2023-02-11T02:23:14;49.90;42.93;65.13;;
41518;Laerm;27249;48.094;-1.690;2023-02-11T02:33:41;45.08;42.22;55.38;;
41518;Laerm;27249;48.094;-1.690;2023-02-11T02:38:46;52.22;43.04;65.32;;
41518;Laerm;27249;48.094;-1.690;2023-02-11T02:41:17;50.06;42.59;62.70;;
41518;Laerm;27249;48.094;-1.690;2023-02-11T02:43:44;50.12;42.53;62.93;;
41518;Laerm;27249;48.094;-1.690;2023-02-11T02:46:18;52.44;42.65;63.75;;
41518;Laerm;27249;48.094;-1.690;2023-02-11T02:48:44;50.24;43.14;62.10;;
41518;Laerm;27249;48.094;-1.690;2023-02-11T02:51:27;47.28;42.98;57.84;;
41518;Laerm;27249;48.094;-1.690;2023-02-11T03:01:41;49.13;42.29;60.30;;
41518;Laerm;27249;48.094;-1.690;2023-02-11T03:04:15;53.51;42.03;69.92;;
41518;Laerm;27249;48.094;-1.690;2023-02-11T03:09:16;50.41;42.41;62.92;;
41518;Laerm;27249;48.094;-1.690;2023-02-11T03:11:44;46.52;42.03;58.22;;
41518;Laerm;27249;48.094;-1.690;2023-02-11T03:14:10;52.15;42.03;61.46;;
41518;Laerm;27249;48.094;-1.690;2023-02-11T03:16:37;52.84;41.96;63.70;;
41518;Laerm;27249;48.094;-1.690;2023-02-11T03:19:12;51.33;42.59;64.10;;
41518;Laerm;27249;48.094;-1.690;2023-02-11T03:21:38;47.83;42.41;58.58;;
41518;Laerm;27249;48.094;-1.690;2023-02-11T03:24:08;48.12;42.41;58.98;;
41518;Laerm;27249;48.094;-1.690;2023-02-11T03:26:36;46.16;41.38;63.16;;
41518;Laerm;27249;48.094;-1.690;2023-02-11T03:29:08;47.40;41.75;63.04;;
41518;Laerm;27249;48.094;-1.690;2023-02-11T03:31:39;44.97;41.61;54.71;;
41518;Laerm;27249;48.094;-1.690;2023-02-11T03:34:10;50.17;41.89;58.77;;
41518;Laerm;27249;48.094;-1.690;2023-02-11T03:36:40;48.51;42.09;62.63;;
41518;Laerm;27249;48.094;-1.690;2023-02-11T03:39:10;47.09;41.75;56.74;;
41518;Laerm;27249;48.094;-1.690;2023-02-11T03:41:39;50.64;42.03;67.68;;
41518;Laerm;27249;48.094;-1.690;2023-02-11T03:44:06;50.20;42.41;62.09;;
41518;Laerm;27249;48.094;-1.690;2023-02-11T03:46:34;51.47;42.09;65.29;;
41518;Laerm;27249;48.094;-1.690;2023-02-11T03:49:02;49.92;42.59;61.31;;
41518;Laerm;27249;48.094;-1.690;2023-02-11T03:51:28;48.57;42.47;61.13;;
41518;Laerm;27249;48.094;-1.690;2023-02-11T03:53:54;47.40;41.68;58.98;;
41518;Laerm;27249;48.094;-1.690;2023-02-11T03:56:22;50.06;42.16;63.38;;
41518;Laerm;27249;48.094;-1.690;2023-02-11T03:58:49;50.46;41.75;64.45;;
41518;Laerm;27249;48.094;-1.690;2023-02-11T04:01:14;51.96;41.96;63.08;;
41518;Laerm;27249;48.094;-1.690;2023-02-11T04:03:40;47.38;41.96;56.41;;
41518;Laerm;27249;48.094;-1.690;2023-02-11T04:06:05;52.20;42.47;63.76;;
41518;Laerm;27249;48.094;-1.690;2023-02-11T04:08:30;51.52;43.09;63.67;;
41518;Laerm;27249;48.094;-1.690;2023-02-11T04:10:56;47.37;42.22;61.15;;
41518;Laerm;27249;48.094;-1.690;2023-02-11T04:13:22;52.33;42.16;63.99;;
41518;Laerm;27249;48.094;-1.690;2023-02-11T04:15:47;51.56;42.93;63.73;;
41518;Laerm;27249;48.094;-1.690;2023-02-11T04:18:12;48.31;42.09;60.80;;
41518;Laerm;27249;48.094;-1.690;2023-02-11T04:20:37;47.68;42.16;61.09;;
41518;Laerm;27249;48.094;-1.690;2023-02-11T04:23:02;48.71;42.03;60.63;;
41518;Laerm;27249;48.094;-1.690;2023-02-11T04:25:28;51.05;41.89;62.34;;
41518;Laerm;27249;48.094;-1.690;2023-02-11T04:27:53;46.97;42.03;59.64;;
41518;Laerm;27249;48.094;-1.690;2023-02-11T04:30:18;50.97;41.68;61.54;;
41518;Laerm;27249;48.094;-1.690;2023-02-11T04:32:43;52.29;43.94;62.27;;
41518;Laerm;27249;48.094;-1.690;2023-02-11T04:35:09;49.15;43.09;59.27;;
41518;Laerm;27249;48.094;-1.690;2023-02-11T04:37:34;54.30;43.49;65.75;;
41518;Laerm;27249;48.094;-1.690;2023-02-11T04:39:59;51.81;43.19;66.58;;
41518;Laerm;27249;48.094;-1.690;2023-02-11T04:42:25;48.62;43.44;59.78;;
41518;Laerm;27249;48.094;-1.690;2023-02-11T04:44:52;51.94;43.09;66.24;;
41518;Laerm;27249;48.094;-1.690;2023-02-11T04:47:17;50.41;43.39;65.14;;
41518;Laerm;27249;48.094;-1.690;2023-02-11T04:49:43;53.00;42.71;63.37;;
41518;Laerm;27249;48.094;-1.690;2023-02-11T04:52:08;51.47;42.93;63.38;;
41518;Laerm;27249;48.094;-1.690;2023-02-11T04:54:33;50.64;42.93;60.53;;
41518;Laerm;27249;48.094;-1.690;2023-02-11T04:56:59;53.79;43.34;69.28;;
41518;Laerm;27249;48.094;-1.690;2023-02-11T04:59:24;51.67;43.09;60.04;;
41518;Laerm;27249;48.094;-1.690;2023-02-11T05:01:49;52.71;42.79;63.85;;
41518;Laerm;27249;48.094;-1.690;2023-02-11T05:04:15;50.39;43.19;63.76;;
41518;Laerm;27249;48.094;-1.690;2023-02-11T05:06:40;49.09;42.76;61.00;;
41518;Laerm;27249;48.094;-1.690;2023-02-11T05:09:05;52.98;44.15;63.28;;
41518;Laerm;27249;48.094;-1.690;2023-02-11T05:11:30;52.22;43.63;63.07;;
41518;Laerm;27249;48.094;-1.690;2023-02-11T05:13:56;53.05;44.90;64.57;;
41518;Laerm;27249;48.094;-1.690;2023-02-11T05:16:21;53.54;43.54;62.54;;
41518;Laerm;27249;48.094;-1.690;2023-02-11T05:18:47;55.89;43.68;67.21;;
41518;Laerm;27249;48.094;-1.690;2023-02-11T05:21:13;51.48;43.94;59.60;;
41518;Laerm;27249;48.094;-1.690;2023-02-11T05:23:40;51.95;45.48;63.00;;
41518;Laerm;27249;48.094;-1.690;2023-02-11T05:26:05;50.50;44.69;59.78;;
41518;Laerm;27249;48.094;-1.690;2023-02-11T05:28:31;51.57;44.35;61.89;;
41518;Laerm;27249;48.094;-1.690;2023-02-11T05:30:56;54.98;44.19;64.97;;
41518;Laerm;27249;48.094;-1.690;2023-02-11T05:33:22;52.77;43.90;61.78;;
41518;Laerm;27249;48.094;-1.690;2023-02-11T05:35:47;51.32;43.86;60.35;;
41518;Laerm;27249;48.094;-1.690;2023-02-11T05:38:13;49.96;43.90;61.13;;
41518;Laerm;27249;48.094;-1.690;2023-02-11T05:40:38;50.25;43.90;60.59;;
41518;Laerm;27249;48.094;-1.690;2023-02-11T05:43:03;49.27;44.15;57.54;;
41518;Laerm;27249;48.094;-1.690;2023-02-11T05:45:28;50.48;43.90;57.27;;
41518;Laerm;27249;48.094;-1.690;2023-02-11T05:47:53;49.50;44.07;60.48;;
41518;Laerm;27249;48.094;-1.690;2023-02-11T05:50:19;51.42;43.99;61.26;;
41518;Laerm;27249;48.094;-1.690;2023-02-11T05:52:44;50.19;43.72;61.40;;
41518;Laerm;27249;48.094;-1.690;2023-02-11T05:55:10;49.25;43.63;63.83;;
41518;Laerm;27249;48.094;-1.690;2023-02-11T05:57:35;50.46;44.08;58.96;;
41518;Laerm;27249;48.094;-1.690;2023-02-11T06:00:04;47.36;43.14;59.35;;
41518;Laerm;27249;48.094;-1.690;2023-02-11T06:02:29;48.15;43.29;57.19;;
41518;Laerm;27249;48.094;-1.690;2023-02-11T06:04:54;53.15;43.49;61.61;;
41518;Laerm;27249;48.094;-1.690;2023-02-11T06:07:20;50.46;43.19;60.28;;
41518;Laerm;27249;48.094;-1.690;2023-02-11T06:09:45;53.81;45.17;61.42;;
41518;Laerm;27249;48.094;-1.690;2023-02-11T06:12:10;49.80;45.01;58.69;;
41518;Laerm;27249;48.094;-1.690;2023-02-11T06:14:35;53.44;44.39;65.78;;
41518;Laerm;27249;48.094;-1.690;2023-02-11T06:17:01;52.51;44.54;61.23;;
41518;Laerm;27249;48.094;-1.690;2023-02-11T06:19:26;52.22;44.35;63.28;;
41518;Laerm;27249;48.094;-1.690;2023-02-11T06:21:51;52.23;45.07;63.80;;
41518;Laerm;27249;48.094;-1.690;2023-02-11T06:24:16;52.07;45.36;61.19;;
41518;Laerm;27249;48.094;-1.690;2023-02-11T06:26:42;51.70;44.97;60.96;;
41518;Laerm;27249;48.094;-1.690;2023-02-11T06:29:07;53.54;44.39;63.04;;
41518;Laerm;27249;48.094;-1.690;2023-02-11T06:31:33;51.94;44.59;62.26;;
41518;Laerm;27249;48.094;-1.690;2023-02-11T06:34:00;54.10;44.94;69.98;;
41518;Laerm;27249;48.094;-1.690;2023-02-11T06:36:25;55.01;45.23;79.66;;
41518;Laerm;27249;48.094;-1.690;2023-02-11T06:38:51;56.57;45.30;73.04;;
41518;Laerm;27249;48.094;-1.690;2023-02-11T06:43:45;53.37;48.61;68.41;;
41518;Laerm;27249;48.094;-1.690;2023-02-11T06:46:11;54.37;47.52;69.74;;
41518;Laerm;27249;48.094;-1.690;2023-02-11T06:48:36;53.12;45.99;66.05;;
41518;Laerm;27249;48.094;-1.690;2023-02-11T06:51:06;53.33;46.73;63.96;;
41518;Laerm;27249;48.094;-1.690;2023-02-11T06:53:33;53.34;45.45;62.57;;
41518;Laerm;27249;48.094;-1.690;2023-02-11T06:56:05;54.92;45.07;64.71;;
41518;Laerm;27249;48.094;-1.690;2023-02-11T06:58:31;53.74;44.11;67.35;;
41518;Laerm;27249;48.094;-1.690;2023-02-11T07:00:57;54.38;44.69;63.20;;
41518;Laerm;27249;48.094;-1.690;2023-02-11T07:03:22;54.07;45.27;62.21;;
41518;Laerm;27249;48.094;-1.690;2023-02-11T07:05:47;53.41;46.10;62.13;;
41518;Laerm;27249;48.094;-1.690;2023-02-11T07:08:13;53.11;45.11;68.71;;
41518;Laerm;27249;48.094;-1.690;2023-02-11T07:10:38;52.68;44.97;64.82;;
41518;Laerm;27249;48.094;-1.690;2023-02-11T07:13:03;53.88;45.86;67.14;;
41518;Laerm;27249;48.094;-1.690;2023-02-11T07:15:29;53.30;44.43;63.25;;
41518;Laerm;27249;48.094;-1.690;2023-02-11T07:17:54;55.67;46.43;64.52;;
41518;Laerm;27249;48.094;-1.690;2023-02-11T07:20:19;53.73;44.97;63.39;;
41518;Laerm;27249;48.094;-1.690;2023-02-11T07:22:44;55.93;47.16;68.05;;
41518;Laerm;27249;48.094;-1.690;2023-02-11T07:25:09;55.68;47.08;62.75;;
41518;Laerm;27249;48.094;-1.690;2023-02-11T07:27:35;55.28;46.25;63.57;;
41518;Laerm;27249;48.094;-1.690;2023-02-11T07:30:00;55.40;45.54;63.93;;
41518;Laerm;27249;48.094;-1.690;2023-02-11T07:32:25;54.97;46.20;62.65;;
41518;Laerm;27249;48.094;-1.690;2023-02-11T07:34:51;55.03;46.25;67.47;;
41518;Laerm;27249;48.094;-1.690;2023-02-11T07:37:16;54.90;45.23;63.49;;
41518;Laerm;27249;48.094;-1.690;2023-02-11T07:39:41;55.31;45.80;65.90;;
41518;Laerm;27249;48.094;-1.690;2023-02-11T07:42:12;59.36;45.60;73.57;;
41518;Laerm;27249;48.094;-1.690;2023-02-11T07:44:38;57.26;45.80;72.88;;
41518;Laerm;27249;48.094;-1.690;2023-02-11T07:47:03;55.74;46.18;62.79;;
41518;Laerm;27249;48.094;-1.690;2023-02-11T07:49:28;55.37;47.26;62.26;;
41518;Laerm;27249;48.094;-1.690;2023-02-11T07:51:53;55.01;47.95;69.16;;
41518;Laerm;27249;48.094;-1.690;2023-02-11T07:54:19;54.55;46.33;64.94;;
41518;Laerm;27249;48.094;-1.690;2023-02-11T07:56:44;57.91;48.07;77.60;;
41518;Laerm;27249;48.094;-1.690;2023-02-11T07:59:09;56.75;47.22;68.73;;
41518;Laerm;27249;48.094;-1.690;2023-02-11T08:01:35;53.64;45.39;61.90;;
41518;Laerm;27249;48.094;-1.690;2023-02-11T08:04:00;61.92;45.60;87.27;;
41518;Laerm;27249;48.094;-1.690;2023-02-11T08:06:27;56.46;47.91;65.09;;
41518;Laerm;27249;48.094;-1.690;2023-02-11T08:08:53;56.05;47.12;63.56;;
41518;Laerm;27249;48.094;-1.690;2023-02-11T08:14:24;55.94;47.08;64.36;;
41518;Laerm;27249;48.094;-1.690;2023-02-11T08:16:51;57.75;50.67;63.77;;
41518;Laerm;27249;48.094;-1.690;2023-02-11T08:19:16;57.21;48.32;65.96;;
41518;Laerm;27249;48.094;-1.690;2023-02-11T08:21:41;57.02;48.13;63.58;;
41518;Laerm;27249;48.094;-1.690;2023-02-11T08:24:07;57.19;50.02;64.59;;
41518;Laerm;27249;48.094;-1.690;2023-02-11T08:26:33;56.83;49.46;68.34;;
41518;Laerm;27249;48.094;-1.690;2023-02-11T08:28:59;57.03;49.02;64.55;;
41518;Laerm;27249;48.094;-1.690;2023-02-11T08:31:25;55.75;46.75;62.35;;
41518;Laerm;27249;48.094;-1.690;2023-02-11T08:33:51;54.76;47.02;63.78;;
41518;Laerm;27249;48.094;-1.690;2023-02-11T08:36:20;57.32;50.43;65.43;;
41518;Laerm;27249;48.094;-1.690;2023-02-11T08:38:45;57.28;48.00;64.57;;
41518;Laerm;27249;48.094;-1.690;2023-02-11T08:41:11;57.68;47.93;64.20;;
41518;Laerm;27249;48.094;-1.690;2023-02-11T08:43:40;56.45;51.67;63.06;;
41518;Laerm;27249;48.094;-1.690;2023-02-11T08:46:06;55.74;47.14;64.46;;
41518;Laerm;27249;48.094;-1.690;2023-02-11T08:48:31;57.38;49.91;68.51;;
41518;Laerm;27249;48.094;-1.690;2023-02-11T08:50:57;57.22;46.50;65.32;;
41518;Laerm;27249;48.094;-1.690;2023-02-11T08:53:22;57.97;50.42;67.03;;
41518;Laerm;27249;48.094;-1.690;2023-02-11T08:55:56;57.23;51.80;71.44;;
41518;Laerm;27249;48.094;-1.690;2023-02-11T08:58:22;56.80;48.92;63.50;;
41518;Laerm;27249;48.094;-1.690;2023-02-11T09:00:51;57.55;50.56;63.75;;
41518;Laerm;27249;48.094;-1.690;2023-02-11T09:03:18;58.50;49.06;67.85;;
41518;Laerm;27249;48.094;-1.690;2023-02-11T09:05:45;57.83;50.04;68.84;;
41518;Laerm;27249;48.094;-1.690;2023-02-11T09:08:12;57.12;49.25;65.99;;
41518;Laerm;27249;48.094;-1.690;2023-02-11T09:10:37;57.51;47.57;76.07;;
41518;Laerm;27249;48.094;-1.690;2023-02-11T09:15:36;57.05;51.16;64.11;;
41518;Laerm;27249;48.094;-1.690;2023-02-11T09:18:15;58.94;48.49;80.48;;
41518;Laerm;27249;48.094;-1.690;2023-02-11T09:20:40;57.41;49.75;66.51;;
41518;Laerm;27249;48.094;-1.690;2023-02-11T09:23:06;58.36;51.48;63.60;;
41518;Laerm;27249;48.094;-1.690;2023-02-11T09:25:31;57.66;51.56;63.70;;
41518;Laerm;27249;48.094;-1.690;2023-02-11T09:27:57;57.42;49.28;64.03;;
41518;Laerm;27249;48.094;-1.690;2023-02-11T09:30:23;57.48;49.82;63.87;;
41518;Laerm;27249;48.094;-1.690;2023-02-11T09:32:48;57.18;48.60;63.50;;
41518;Laerm;27249;48.094;-1.690;2023-02-11T09:35:13;57.23;50.09;65.02;;
41518;Laerm;27249;48.094;-1.690;2023-02-11T09:37:38;55.96;49.47;64.06;;
41518;Laerm;27249;48.094;-1.690;2023-02-11T09:40:04;56.00;45.77;65.68;;
41518;Laerm;27249;48.094;-1.690;2023-02-11T09:44:57;57.05;47.48;67.93;;
41518;Laerm;27249;48.094;-1.690;2023-02-11T09:47:32;58.19;50.54;64.97;;
41518;Laerm;27249;48.094;-1.690;2023-02-11T09:50:05;56.88;48.81;64.20;;
41518;Laerm;27249;48.094;-1.690;2023-02-11T09:55:22;57.62;47.61;69.34;;
41518;Laerm;27249;48.094;-1.690;2023-02-11T09:57:48;57.07;47.95;65.79;;
41518;Laerm;27249;48.094;-1.690;2023-02-11T10:00:22;58.33;49.23;68.64;;
41518;Laerm;27249;48.094;-1.690;2023-02-11T10:15:37;59.86;49.73;78.18;;
41518;Laerm;27249;48.094;-1.690;2023-02-11T10:23:51;58.30;49.06;65.93;;
41518;Laerm;27249;48.094;-1.690;2023-02-11T10:26:18;56.74;48.73;62.78;;
41518;Laerm;27249;48.094;-1.690;2023-02-11T10:28:45;57.39;49.24;62.28;;
41518;Laerm;27249;48.094;-1.690;2023-02-11T10:31:31;58.19;47.76;74.36;;
41518;Laerm;27249;48.094;-1.690;2023-02-11T10:34:10;56.76;49.27;66.92;;
41518;Laerm;27249;48.094;-1.690;2023-02-11T10:36:36;58.06;50.62;69.55;;
41518;Laerm;27249;48.094;-1.690;2023-02-11T10:44:06;57.03;51.83;64.87;;
41518;Laerm;27249;48.094;-1.690;2023-02-11T10:46:32;57.53;51.71;64.71;;
41518;Laerm;27249;48.094;-1.690;2023-02-11T10:48:58;56.84;49.19;67.41;;
41518;Laerm;27249;48.094;-1.690;2023-02-11T10:51:25;56.39;51.80;62.39;;
41518;Laerm;27249;48.094;-1.690;2023-02-11T10:56:28;57.15;46.43;63.76;;
41518;Laerm;27249;48.094;-1.690;2023-02-11T10:58:56;58.38;48.64;70.09;;
41518;Laerm;27249;48.094;-1.690;2023-02-11T11:01:22;56.97;48.88;63.92;;
41518;Laerm;27249;48.094;-1.690;2023-02-11T11:03:48;56.97;49.08;63.89;;
41518;Laerm;27249;48.094;-1.690;2023-02-11T11:06:14;56.09;48.76;65.75;;
41518;Laerm;27249;48.094;-1.690;2023-02-11T11:08:49;56.89;49.47;70.63;;
41518;Laerm;27249;48.094;-1.690;2023-02-11T11:14:00;57.39;49.41;64.57;;
41518;Laerm;27249;48.094;-1.690;2023-02-11T11:16:34;55.78;50.10;67.25;;
41518;Laerm;27249;48.094;-1.690;2023-02-11T11:23:59;56.66;48.95;62.90;;
41518;Laerm;27249;48.094;-1.690;2023-02-11T11:26:27;57.09;47.65;64.57;;
41518;Laerm;27249;48.094;-1.690;2023-02-11T11:28:55;57.39;50.06;66.29;;
41518;Laerm;27249;48.094;-1.690;2023-02-11T11:31:23;58.08;49.65;70.27;;
41518;Laerm;27249;48.094;-1.690;2023-02-11T11:33:50;56.64;50.05;63.93;;
41518;Laerm;27249;48.094;-1.690;2023-02-11T11:36:19;57.17;50.89;62.30;;
41518;Laerm;27249;48.094;-1.690;2023-02-11T11:38:49;57.70;49.64;63.87;;
41518;Laerm;27249;48.094;-1.690;2023-02-11T11:41:25;58.50;47.18;67.12;;
41518;Laerm;27249;48.094;-1.690;2023-02-11T11:55:20;56.43;46.91;63.09;;
41518;Laerm;27249;48.094;-1.690;2023-02-11T11:57:46;57.72;51.08;64.16;;
41518;Laerm;27249;48.094;-1.690;2023-02-11T12:00:19;56.42;47.90;70.68;;
41518;Laerm;27249;48.094;-1.690;2023-02-11T12:13:41;56.25;47.04;62.86;;
41518;Laerm;27249;48.094;-1.690;2023-02-11T12:16:17;57.29;47.46;65.07;;
41518;Laerm;27249;48.094;-1.690;2023-02-11T12:19:02;56.36;44.62;65.82;;
41518;Laerm;27249;48.094;-1.690;2023-02-11T12:34:36;56.36;44.97;65.09;;
41518;Laerm;27249;48.094;-1.690;2023-02-11T12:37:05;57.61;45.72;69.18;;
41518;Laerm;27249;48.094;-1.690;2023-02-11T12:47:24;57.75;46.48;71.99;;
41518;Laerm;27249;48.094;-1.690;2023-02-11T12:49:59;56.90;47.84;63.94;;
41518;Laerm;27249;48.094;-1.690;2023-02-11T12:52:32;57.00;48.96;64.90;;
41518;Laerm;27249;48.094;-1.690;2023-02-11T12:55:03;57.35;45.07;63.56;;
41518;Laerm;27249;48.094;-1.690;2023-02-11T12:57:33;55.67;47.91;65.90;;
41518;Laerm;27249;48.094;-1.690;2023-02-11T13:00:06;57.79;51.17;66.16;;
41518;Laerm;27249;48.094;-1.690;2023-02-11T13:08:04;56.58;49.49;73.43;;
41518;Laerm;27249;48.094;-1.690;2023-02-11T13:10:37;57.26;51.66;63.15;;
41518;Laerm;27249;48.094;-1.690;2023-02-11T13:13:17;54.44;45.42;61.27;;
41518;Laerm;27249;48.094;-1.690;2023-02-11T13:15:54;56.37;48.15;61.92;;
41518;Laerm;27249;48.094;-1.690;2023-02-11T13:20:58;53.45;45.45;61.18;;
41518;Laerm;27249;48.094;-1.690;2023-02-11T13:23:38;56.67;50.15;63.26;;
41518;Laerm;27249;48.094;-1.690;2023-02-11T13:26:27;55.77;45.30;63.26;;
41518;Laerm;27249;48.094;-1.690;2023-02-11T13:29:39;56.59;48.13;66.64;;
41518;Laerm;27249;48.094;-1.690;2023-02-11T13:31:39;58.11;45.60;78.80;;
41518;Laerm;27249;48.094;-1.690;2023-02-11T13:34:19;56.46;44.62;63.90;;
41518;Laerm;27249;48.094;-1.690;2023-02-11T13:36:52;56.56;42.82;64.55;;
41518;Laerm;27249;48.094;-1.690;2023-02-11T13:39:18;57.07;46.71;65.88;;
41518;Laerm;27249;48.094;-1.690;2023-02-11T13:41:44;56.44;44.47;65.03;;
41518;Laerm;27249;48.094;-1.690;2023-02-11T13:46:47;57.11;48.08;64.14;;
41518;Laerm;27249;48.094;-1.690;2023-02-11T13:49:39;56.75;45.72;62.79;;
41518;Laerm;27249;48.094;-1.690;2023-02-11T13:54:51;56.58;47.10;67.32;;
41518;Laerm;27249;48.094;-1.690;2023-02-11T13:59:47;56.97;49.64;69.89;;
41518;Laerm;27249;48.094;-1.690;2023-02-11T14:10:49;56.84;46.57;64.76;;
41518;Laerm;27249;48.094;-1.690;2023-02-11T14:13:21;63.59;49.00;84.99;;
41518;Laerm;27249;48.094;-1.690;2023-02-11T14:15:46;55.34;45.23;65.30;;
41518;Laerm;27249;48.094;-1.690;2023-02-11T14:23:35;63.56;46.07;86.40;;
41518;Laerm;27249;48.094;-1.690;2023-02-11T14:26:20;55.34;45.11;62.26;;
41518;Laerm;27249;48.094;-1.690;2023-02-11T14:28:51;55.49;47.24;65.18;;
41518;Laerm;27249;48.094;-1.690;2023-02-11T14:36:36;54.24;47.83;60.79;;
41518;Laerm;27249;48.094;-1.690;2023-02-11T14:41:47;56.68;48.43;66.37;;
41518;Laerm;27249;48.094;-1.690;2023-02-11T14:44:24;56.74;48.49;69.09;;
41518;Laerm;27249;48.094;-1.690;2023-02-11T14:46:51;57.07;49.46;66.50;;
41518;Laerm;27249;48.094;-1.690;2023-02-11T14:51:50;55.84;49.32;63.37;;
41518;Laerm;27249;48.094;-1.690;2023-02-11T14:54:18;56.95;49.00;63.56;;
41518;Laerm;27249;48.094;-1.690;2023-02-11T14:56:46;55.96;46.50;62.67;;
41518;Laerm;27249;48.094;-1.690;2023-02-11T14:59:28;53.97;45.86;60.85;;
41518;Laerm;27249;48.094;-1.690;2023-02-11T15:01:54;55.88;46.10;63.19;;
41518;Laerm;27249;48.094;-1.690;2023-02-11T15:04:30;55.44;48.55;61.49;;
41518;Laerm;27249;48.094;-1.690;2023-02-11T15:06:57;55.06;45.97;65.31;;
41518;Laerm;27249;48.094;-1.690;2023-02-11T15:09:36;55.51;46.43;67.27;;
41518;Laerm;27249;48.094;-1.690;2023-02-11T15:12:04;57.44;50.96;65.32;;
41518;Laerm;27249;48.094;-1.690;2023-02-11T15:14:37;55.58;45.98;61.56;;
41518;Laerm;27249;48.094;-1.690;2023-02-11T15:17:04;55.92;46.73;62.58;;
41518;Laerm;27249;48.094;-1.690;2023-02-11T15:24:56;57.02;45.43;64.58;;
41518;Laerm;27249;48.094;-1.690;2023-02-11T15:27:22;56.95;46.64;64.89;;
41518;Laerm;27249;48.094;-1.690;2023-02-11T15:29:49;55.77;44.31;63.98;;
41518;Laerm;27249;48.094;-1.690;2023-02-11T15:32:21;55.16;45.01;61.42;;
41518;Laerm;27249;48.094;-1.690;2023-02-11T15:34:48;57.56;47.70;65.20;;
41518;Laerm;27249;48.094;-1.690;2023-02-11T15:37:23;57.02;48.55;69.15;;
41518;Laerm;27249;48.094;-1.690;2023-02-11T15:39:49;58.29;48.08;72.27;;
41518;Laerm;27249;48.094;-1.690;2023-02-11T15:44:46;56.45;48.03;66.06;;
41518;Laerm;27249;48.094;-1.690;2023-02-11T15:47:12;61.27;48.60;75.34;;
41518;Laerm;27249;48.094;-1.690;2023-02-11T15:49:43;56.61;48.70;62.80;;
41518;Laerm;27249;48.094;-1.690;2023-02-11T15:52:09;58.27;48.91;67.08;;
41518;Laerm;27249;48.094;-1.690;2023-02-11T15:54:37;56.96;47.26;65.41;;
41518;Laerm;27249;48.094;-1.690;2023-02-11T15:57:06;56.67;48.45;69.29;;
41518;Laerm;27249;48.094;-1.690;2023-02-11T15:59:34;55.68;48.60;65.03;;
41518;Laerm;27249;48.094;-1.690;2023-02-11T16:02:06;55.81;49.00;63.48;;
41518;Laerm;27249;48.094;-1.690;2023-02-11T16:04:32;56.01;46.84;62.32;;
41518;Laerm;27249;48.094;-1.690;2023-02-11T16:06:58;56.44;50.39;66.13;;
41518;Laerm;27249;48.094;-1.690;2023-02-11T16:09:25;56.46;50.12;63.91;;
41518;Laerm;27249;48.094;-1.690;2023-02-11T16:12:18;56.40;49.52;65.85;;
41518;Laerm;27249;48.094;-1.690;2023-02-11T16:14:46;56.18;47.46;62.09;;
41518;Laerm;27249;48.094;-1.690;2023-02-11T16:17:12;55.64;48.39;63.93;;
41518;Laerm;27249;48.094;-1.690;2023-02-11T16:19:46;56.61;48.10;61.75;;
41518;Laerm;27249;48.094;-1.690;2023-02-11T16:22:17;57.43;49.65;65.82;;
41518;Laerm;27249;48.094;-1.690;2023-02-11T16:24:44;58.23;50.95;70.65;;